sensor_id;sensor_type;location;lat;lon;timestamp;temperature;humidity
11280;DHT22;5696;50.928;6.960;2022-08-01T05:03:15;22.00;99.90
11280;DHT22;5696;50.928;6.960;2022-08-01T05:05:41;22.10;99.90
11280;DHT22;5696;50.928;6.960;2022-08-01T05:08:07;22.10;99.90
11280;DHT22;5696;50.928;6.960;2022-08-01T05:10:33;22.00;99.90
11280;DHT22;5696;50.928;6.960;2022-08-01T05:12:59;22.10;99.90
11280;DHT22;5696;50.928;6.960;2022-08-01T05:15:24;22.00;99.90
11280;DHT22;5696;50.928;6.960;2022-08-01T05:17:50;22.10;99.90
11280;DHT22;5696;50.928;6.960;2022-08-01T05:20:16;22.10;99.90
11280;DHT22;5696;50.928;6.960;2022-08-01T05:22:42;22.20;99.90
11280;DHT22;5696;50.928;6.960;2022-08-01T05:25:08;22.20;99.90
11280;DHT22;5696;50.928;6.960;2022-08-01T05:27:34;22.20;99.90
11280;DHT22;5696;50.928;6.960;2022-08-01T05:30:06;22.30;99.90
11280;DHT22;5696;50.928;6.960;2022-08-01T05:32:32;22.30;99.90
11280;DHT22;5696;50.928;6.960;2022-08-01T05:34:57;22.20;99.90
11280;DHT22;5696;50.928;6.960;2022-08-01T05:37:23;22.20;99.90
11280;DHT22;5696;50.928;6.960;2022-08-01T05:39:48;22.20;99.90
11280;DHT22;5696;50.928;6.960;2022-08-01T05:42:14;22.20;99.90
11280;DHT22;5696;50.928;6.960;2022-08-01T05:44:40;22.20;99.90
11280;DHT22;5696;50.928;6.960;2022-08-01T05:47:05;22.20;99.90
11280;DHT22;5696;50.928;6.960;2022-08-01T05:49:31;22.00;99.90
11280;DHT22;5696;50.928;6.960;2022-08-01T05:51:56;21.90;99.90
11280;DHT22;5696;50.928;6.960;2022-08-01T05:54:22;22.00;99.90
11280;DHT22;5696;50.928;6.960;2022-08-01T05:56:48;22.20;99.90
11280;DHT22;5696;50.928;6.960;2022-08-01T05:59:13;22.30;99.90
11280;DHT22;5696;50.928;6.960;2022-08-01T06:01:39;22.40;99.90
11280;DHT22;5696;50.928;6.960;2022-08-01T06:04:04;22.30;99.90
11280;DHT22;5696;50.928;6.960;2022-08-01T06:06:30;22.30;99.90
11280;DHT22;5696;50.928;6.960;2022-08-01T06:08:56;22.40;99.90
11280;DHT22;5696;50.928;6.960;2022-08-01T06:11:21;22.60;99.90
11280;DHT22;5696;50.928;6.960;2022-08-01T06:13:47;22.90;99.90
11280;DHT22;5696;50.928;6.960;2022-08-01T06:16:13;23.20;99.90
11280;DHT22;5696;50.928;6.960;2022-08-01T06:18:38;23.50;99.90
11280;DHT22;5696;50.928;6.960;2022-08-01T06:21:04;23.90;99.90
11280;DHT22;5696;50.928;6.960;2022-08-01T06:23:29;24.20;99.90
11280;DHT22;5696;50.928;6.960;2022-08-01T06:25:55;24.60;99.90
11280;DHT22;5696;50.928;6.960;2022-08-01T06:28:22;25.00;99.90
11280;DHT22;5696;50.928;6.960;2022-08-01T06:30:48;25.30;99.90
11280;DHT22;5696;50.928;6.960;2022-08-01T06:33:13;25.60;99.90
11280;DHT22;5696;50.928;6.960;2022-08-01T06:35:39;26.10;99.90
11280;DHT22;5696;50.928;6.960;2022-08-01T06:38:04;26.00;99.90
11280;DHT22;5696;50.928;6.960;2022-08-01T06:40:30;25.80;99.90
11280;DHT22;5696;50.928;6.960;2022-08-01T06:42:56;25.80;99.90
11280;DHT22;5696;50.928;6.960;2022-08-01T06:45:21;25.70;99.90
11280;DHT22;5696;50.928;6.960;2022-08-01T06:47:53;25.80;99.90
11280;DHT22;5696;50.928;6.960;2022-08-01T06:50:19;27.80;99.90
11280;DHT22;5696;50.928;6.960;2022-08-01T06:52:44;27.90;99.90
11280;DHT22;5696;50.928;6.960;2022-08-01T06:55:10;27.60;99.90
11280;DHT22;5696;50.928;6.960;2022-08-01T06:57:36;27.50;99.90
11280;DHT22;5696;50.928;6.960;2022-08-01T07:00:06;27.20;99.90
11280;DHT22;5696;50.928;6.960;2022-08-01T07:02:37;26.90;99.90
11280;DHT22;5696;50.928;6.960;2022-08-01T07:05:03;26.70;99.90
11280;DHT22;5696;50.928;6.960;2022-08-01T07:07:30;26.50;99.90
11280;DHT22;5696;50.928;6.960;2022-08-01T07:09:55;26.00;99.90
11280;DHT22;5696;50.928;6.960;2022-08-01T07:12:21;25.70;99.90
11280;DHT22;5696;50.928;6.960;2022-08-01T07:14:47;25.60;99.90
11280;DHT22;5696;50.928;6.960;2022-08-01T07:17:13;25.60;99.90
11280;DHT22;5696;50.928;6.960;2022-08-01T07:19:38;25.50;99.90
11280;DHT22;5696;50.928;6.960;2022-08-01T07:22:04;25.50;99.90
11280;DHT22;5696;50.928;6.960;2022-08-01T07:24:30;25.50;99.90
11280;DHT22;5696;50.928;6.960;2022-08-01T07:26:55;25.60;99.90
11280;DHT22;5696;50.928;6.960;2022-08-01T07:29:26;25.60;99.90
11280;DHT22;5696;50.928;6.960;2022-08-01T07:31:57;25.70;99.90
11280;DHT22;5696;50.928;6.960;2022-08-01T07:34:23;25.80;99.90
11280;DHT22;5696;50.928;6.960;2022-08-01T07:36:50;25.80;99.90
11280;DHT22;5696;50.928;6.960;2022-08-01T07:39:16;26.10;99.90
11280;DHT22;5696;50.928;6.960;2022-08-01T07:41:42;26.20;99.90
11280;DHT22;5696;50.928;6.960;2022-08-01T07:44:07;26.20;99.90
11280;DHT22;5696;50.928;6.960;2022-08-01T07:46:33;26.50;99.90
11280;DHT22;5696;50.928;6.960;2022-08-01T07:48:59;26.60;99.90
11280;DHT22;5696;50.928;6.960;2022-08-01T07:51:25;26.60;99.90
11280;DHT22;5696;50.928;6.960;2022-08-01T07:53:58;26.60;99.90
11280;DHT22;5696;50.928;6.960;2022-08-01T07:56:23;26.70;99.90
11280;DHT22;5696;50.928;6.960;2022-08-01T07:58:50;26.70;99.90
11280;DHT22;5696;50.928;6.960;2022-08-01T08:01:16;26.50;99.90
11280;DHT22;5696;50.928;6.960;2022-08-01T08:03:43;26.70;99.90
11280;DHT22;5696;50.928;6.960;2022-08-01T08:06:08;27.10;99.90
11280;DHT22;5696;50.928;6.960;2022-08-01T08:08:34;28.30;99.90
11280;DHT22;5696;50.928;6.960;2022-08-01T08:11:00;28.80;99.90
11280;DHT22;5696;50.928;6.960;2022-08-01T08:13:26;28.70;99.90
11280;DHT22;5696;50.928;6.960;2022-08-01T08:15:52;28.50;99.90
11280;DHT22;5696;50.928;6.960;2022-08-01T08:18:18;28.60;99.90
11280;DHT22;5696;50.928;6.960;2022-08-01T08:20:43;28.70;99.90
11280;DHT22;5696;50.928;6.960;2022-08-01T08:23:09;28.80;99.90
11280;DHT22;5696;50.928;6.960;2022-08-01T08:25:53;28.80;99.90
11280;DHT22;5696;50.928;6.960;2022-08-01T08:28:19;28.60;99.90
11280;DHT22;5696;50.928;6.960;2022-08-01T08:30:45;28.80;99.90
11280;DHT22;5696;50.928;6.960;2022-08-01T08:33:10;28.80;99.90
11280;DHT22;5696;50.928;6.960;2022-08-01T08:35:39;28.90;99.90
11280;DHT22;5696;50.928;6.960;2022-08-01T08:38:05;28.80;99.90
11280;DHT22;5696;50.928;6.960;2022-08-01T08:40:30;28.80;99.90
11280;DHT22;5696;50.928;6.960;2022-08-01T08:42:59;28.50;99.90
11280;DHT22;5696;50.928;6.960;2022-08-01T08:45:26;28.20;99.90
11280;DHT22;5696;50.928;6.960;2022-08-01T08:47:52;28.00;99.90
11280;DHT22;5696;50.928;6.960;2022-08-01T08:50:19;27.90;99.90
11280;DHT22;5696;50.928;6.960;2022-08-01T08:52:46;28.20;99.90
11280;DHT22;5696;50.928;6.960;2022-08-01T08:55:16;28.20;99.90
11280;DHT22;5696;50.928;6.960;2022-08-01T08:57:43;27.90;99.90
11280;DHT22;5696;50.928;6.960;2022-08-01T09:00:10;27.80;99.90
11280;DHT22;5696;50.928;6.960;2022-08-01T09:02:44;27.80;99.90
11280;DHT22;5696;50.928;6.960;2022-08-01T09:05:11;27.70;99.90
11280;DHT22;5696;50.928;6.960;2022-08-01T09:07:37;28.00;99.90
11280;DHT22;5696;50.928;6.960;2022-08-01T09:10:03;28.30;99.90
11280;DHT22;5696;50.928;6.960;2022-08-01T09:12:29;28.40;99.90
11280;DHT22;5696;50.928;6.960;2022-08-01T09:14:55;28.70;99.90
11280;DHT22;5696;50.928;6.960;2022-08-01T09:17:28;28.80;99.90
11280;DHT22;5696;50.928;6.960;2022-08-01T09:20:04;29.00;99.90
11280;DHT22;5696;50.928;6.960;2022-08-01T09:22:34;28.90;99.90
11280;DHT22;5696;50.928;6.960;2022-08-01T09:25:09;28.60;99.90
11280;DHT22;5696;50.928;6.960;2022-08-01T09:27:38;28.30;99.90
11280;DHT22;5696;50.928;6.960;2022-08-01T09:30:12;28.50;99.90
11280;DHT22;5696;50.928;6.960;2022-08-01T09:32:59;28.50;99.90
11280;DHT22;5696;50.928;6.960;2022-08-01T09:35:30;28.40;99.90
11280;DHT22;5696;50.928;6.960;2022-08-01T09:38:20;28.40;99.90
11280;DHT22;5696;50.928;6.960;2022-08-01T09:40:51;28.50;99.90
11280;DHT22;5696;50.928;6.960;2022-08-01T09:43:18;28.60;99.90
11280;DHT22;5696;50.928;6.960;2022-08-01T09:45:44;28.60;99.90
11280;DHT22;5696;50.928;6.960;2022-08-01T09:48:10;28.70;99.90
11280;DHT22;5696;50.928;6.960;2022-08-01T09:50:47;28.90;99.90
11280;DHT22;5696;50.928;6.960;2022-08-01T09:53:14;29.10;99.90
11280;DHT22;5696;50.928;6.960;2022-08-01T09:55:40;29.30;99.90
11280;DHT22;5696;50.928;6.960;2022-08-01T09:58:07;29.30;99.90
11280;DHT22;5696;50.928;6.960;2022-08-01T10:00:34;29.70;99.90
11280;DHT22;5696;50.928;6.960;2022-08-01T10:05:44;30.00;99.50
11280;DHT22;5696;50.928;6.960;2022-08-01T10:08:10;30.30;98.30
11280;DHT22;5696;50.928;6.960;2022-08-01T10:10:38;30.10;97.80
11280;DHT22;5696;50.928;6.960;2022-08-01T10:13:04;30.20;98.10
11280;DHT22;5696;50.928;6.960;2022-08-01T10:15:31;30.50;97.00
11280;DHT22;5696;50.928;6.960;2022-08-01T10:17:58;30.30;97.00
11280;DHT22;5696;50.928;6.960;2022-08-01T10:20:30;30.20;97.70
11280;DHT22;5696;50.928;6.960;2022-08-01T10:23:03;30.40;97.10
11280;DHT22;5696;50.928;6.960;2022-08-01T10:25:35;30.60;96.90
11280;DHT22;5696;50.928;6.960;2022-08-01T10:28:10;30.60;96.10
11280;DHT22;5696;50.928;6.960;2022-08-01T10:30:41;30.60;95.80
11280;DHT22;5696;50.928;6.960;2022-08-01T10:33:07;30.30;96.00
11280;DHT22;5696;50.928;6.960;2022-08-01T10:35:33;30.00;96.60
11280;DHT22;5696;50.928;6.960;2022-08-01T10:37:59;29.70;97.20
11280;DHT22;5696;50.928;6.960;2022-08-01T10:40:25;29.80;96.90
11280;DHT22;5696;50.928;6.960;2022-08-01T10:42:53;29.70;97.10
11280;DHT22;5696;50.928;6.960;2022-08-01T10:45:19;29.60;96.50
11280;DHT22;5696;50.928;6.960;2022-08-01T10:47:57;29.20;97.50
11280;DHT22;5696;50.928;6.960;2022-08-01T10:50:40;29.30;97.50
11280;DHT22;5696;50.928;6.960;2022-08-01T10:58:29;29.30;96.40
11280;DHT22;5696;50.928;6.960;2022-08-01T11:03:40;29.20;96.60
11280;DHT22;5696;50.928;6.960;2022-08-01T11:06:05;29.50;96.30
11280;DHT22;5696;50.928;6.960;2022-08-01T11:08:35;29.70;95.10
11280;DHT22;5696;50.928;6.960;2022-08-01T11:11:03;30.00;95.40
11280;DHT22;5696;50.928;6.960;2022-08-01T11:16:41;31.30;93.80
11280;DHT22;5696;50.928;6.960;2022-08-01T11:19:07;31.70;92.10
11280;DHT22;5696;50.928;6.960;2022-08-01T11:29:41;30.20;93.70
11280;DHT22;5696;50.928;6.960;2022-08-01T11:32:32;30.00;93.50
11280;DHT22;5696;50.928;6.960;2022-08-01T11:35:03;29.60;94.00
11280;DHT22;5696;50.928;6.960;2022-08-01T11:37:29;29.40;94.90
11280;DHT22;5696;50.928;6.960;2022-08-01T11:40:14;29.40;94.80
11280;DHT22;5696;50.928;6.960;2022-08-01T11:42:40;29.60;94.50
11280;DHT22;5696;50.928;6.960;2022-08-01T11:45:07;30.10;94.70
11280;DHT22;5696;50.928;6.960;2022-08-01T11:47:50;30.40;93.00
11280;DHT22;5696;50.928;6.960;2022-08-01T11:52:59;29.80;93.30
11280;DHT22;5696;50.928;6.960;2022-08-01T11:55:26;29.30;94.80
11280;DHT22;5696;50.928;6.960;2022-08-01T11:58:05;29.20;93.60
11280;DHT22;5696;50.928;6.960;2022-08-01T12:00:32;29.10;93.50
11280;DHT22;5696;50.928;6.960;2022-08-01T12:03:03;29.30;93.20
11280;DHT22;5696;50.928;6.960;2022-08-01T12:05:29;29.40;92.10
11280;DHT22;5696;50.928;6.960;2022-08-01T12:07:57;29.60;92.90
11280;DHT22;5696;50.928;6.960;2022-08-01T12:10:26;29.80;91.70
11280;DHT22;5696;50.928;6.960;2022-08-01T12:12:54;30.00;91.00
11280;DHT22;5696;50.928;6.960;2022-08-01T12:15:22;30.30;90.90
11280;DHT22;5696;50.928;6.960;2022-08-01T12:18:00;30.50;89.80
11280;DHT22;5696;50.928;6.960;2022-08-01T12:20:32;30.60;88.10
11280;DHT22;5696;50.928;6.960;2022-08-01T12:23:01;30.50;87.80
11280;DHT22;5696;50.928;6.960;2022-08-01T12:25:27;30.20;88.70
11280;DHT22;5696;50.928;6.960;2022-08-01T12:27:53;30.00;90.10
11280;DHT22;5696;50.928;6.960;2022-08-01T12:30:21;29.70;90.90
11280;DHT22;5696;50.928;6.960;2022-08-01T12:32:48;29.60;91.30
11280;DHT22;5696;50.928;6.960;2022-08-01T12:35:15;29.60;91.50
11280;DHT22;5696;50.928;6.960;2022-08-01T12:37:49;29.60;91.00
11280;DHT22;5696;50.928;6.960;2022-08-01T12:40:18;29.70;91.20
11280;DHT22;5696;50.928;6.960;2022-08-01T12:42:48;29.70;91.00
11280;DHT22;5696;50.928;6.960;2022-08-01T12:45:25;29.80;90.70
11280;DHT22;5696;50.928;6.960;2022-08-01T12:47:53;30.10;90.10
11280;DHT22;5696;50.928;6.960;2022-08-01T12:50:20;30.50;87.00
11280;DHT22;5696;50.928;6.960;2022-08-01T12:52:57;30.70;85.30
11280;DHT22;5696;50.928;6.960;2022-08-01T12:55:24;30.80;83.00
11280;DHT22;5696;50.928;6.960;2022-08-01T12:58:12;30.80;82.90
11280;DHT22;5696;50.928;6.960;2022-08-01T13:00:39;31.00;81.80
11280;DHT22;5696;50.928;6.960;2022-08-01T13:03:09;30.80;82.00
11280;DHT22;5696;50.928;6.960;2022-08-01T13:05:43;30.90;81.80
11280;DHT22;5696;50.928;6.960;2022-08-01T13:08:11;30.80;82.40
11280;DHT22;5696;50.928;6.960;2022-08-01T13:10:37;30.70;83.20
11280;DHT22;5696;50.928;6.960;2022-08-01T13:13:03;31.10;81.80
11280;DHT22;5696;50.928;6.960;2022-08-01T13:15:31;31.10;82.40
11280;DHT22;5696;50.928;6.960;2022-08-01T13:17:58;31.20;82.60
11280;DHT22;5696;50.928;6.960;2022-08-01T13:20:31;31.30;81.50
11280;DHT22;5696;50.928;6.960;2022-08-01T13:23:17;31.40;82.30
11280;DHT22;5696;50.928;6.960;2022-08-01T13:25:51;31.60;80.70
11280;DHT22;5696;50.928;6.960;2022-08-01T13:28:23;31.50;82.40
11280;DHT22;5696;50.928;6.960;2022-08-01T13:31:07;31.70;81.70
11280;DHT22;5696;50.928;6.960;2022-08-01T13:33:44;31.70;79.90
11280;DHT22;5696;50.928;6.960;2022-08-01T13:36:11;31.80;79.60
11280;DHT22;5696;50.928;6.960;2022-08-01T13:38:37;31.60;78.80
11280;DHT22;5696;50.928;6.960;2022-08-01T13:41:21;31.70;77.50
11280;DHT22;5696;50.928;6.960;2022-08-01T13:43:47;31.80;76.80
11280;DHT22;5696;50.928;6.960;2022-08-01T13:46:15;31.80;74.90
11280;DHT22;5696;50.928;6.960;2022-08-01T13:48:40;31.60;73.60
11280;DHT22;5696;50.928;6.960;2022-08-01T13:51:06;31.10;74.00
11280;DHT22;5696;50.928;6.960;2022-08-01T13:53:32;30.60;75.60
11280;DHT22;5696;50.928;6.960;2022-08-01T13:55:58;30.50;77.00
11280;DHT22;5696;50.928;6.960;2022-08-01T13:58:23;30.70;76.20
11280;DHT22;5696;50.928;6.960;2022-08-01T14:00:49;30.80;75.30
11280;DHT22;5696;50.928;6.960;2022-08-01T14:03:15;30.70;74.10
11280;DHT22;5696;50.928;6.960;2022-08-01T14:05:43;30.60;74.30
11280;DHT22;5696;50.928;6.960;2022-08-01T14:08:08;30.60;75.00
11280;DHT22;5696;50.928;6.960;2022-08-01T14:10:34;30.40;73.00
11280;DHT22;5696;50.928;6.960;2022-08-01T14:13:00;30.30;73.60
11280;DHT22;5696;50.928;6.960;2022-08-01T14:15:26;30.40;73.40
11280;DHT22;5696;50.928;6.960;2022-08-01T14:17:52;30.50;73.90
11280;DHT22;5696;50.928;6.960;2022-08-01T14:20:18;30.70;73.30
11280;DHT22;5696;50.928;6.960;2022-08-01T14:22:48;30.80;72.90
11280;DHT22;5696;50.928;6.960;2022-08-01T14:25:14;30.80;73.00
11280;DHT22;5696;50.928;6.960;2022-08-01T14:27:39;30.90;72.10
11280;DHT22;5696;50.928;6.960;2022-08-01T14:30:07;30.90;72.00
11280;DHT22;5696;50.928;6.960;2022-08-01T14:32:33;31.00;72.00
11280;DHT22;5696;50.928;6.960;2022-08-01T14:35:01;31.20;71.60
11280;DHT22;5696;50.928;6.960;2022-08-01T14:37:27;31.20;71.80
11280;DHT22;5696;50.928;6.960;2022-08-01T14:39:57;31.30;70.50
11280;DHT22;5696;50.928;6.960;2022-08-01T14:42:23;31.30;69.70
11280;DHT22;5696;50.928;6.960;2022-08-01T14:44:49;31.20;70.20
11280;DHT22;5696;50.928;6.960;2022-08-01T14:47:14;31.30;70.00
11280;DHT22;5696;50.928;6.960;2022-08-01T14:49:40;30.90;69.20
11280;DHT22;5696;50.928;6.960;2022-08-01T14:52:05;30.90;70.50
11280;DHT22;5696;50.928;6.960;2022-08-01T14:54:31;30.90;70.50
11280;DHT22;5696;50.928;6.960;2022-08-01T14:56:57;30.90;70.90
11280;DHT22;5696;50.928;6.960;2022-08-01T14:59:22;31.10;70.70
11280;DHT22;5696;50.928;6.960;2022-08-01T15:01:48;31.10;69.80
11280;DHT22;5696;50.928;6.960;2022-08-01T15:04:13;31.10;69.40
11280;DHT22;5696;50.928;6.960;2022-08-01T15:06:39;31.00;69.80
11280;DHT22;5696;50.928;6.960;2022-08-01T15:09:05;30.90;70.10
11280;DHT22;5696;50.928;6.960;2022-08-01T15:11:30;31.00;70.20
11280;DHT22;5696;50.928;6.960;2022-08-01T15:13:57;31.10;69.60
11280;DHT22;5696;50.928;6.960;2022-08-01T15:16:41;30.90;69.50
11280;DHT22;5696;50.928;6.960;2022-08-01T15:19:08;30.90;71.00
11280;DHT22;5696;50.928;6.960;2022-08-01T15:21:33;30.90;71.50
11280;DHT22;5696;50.928;6.960;2022-08-01T15:23:59;30.90;71.40
11280;DHT22;5696;50.928;6.960;2022-08-01T15:26:25;31.00;71.40
11280;DHT22;5696;50.928;6.960;2022-08-01T15:28:50;30.90;71.10
11280;DHT22;5696;50.928;6.960;2022-08-01T15:31:17;30.80;71.20
11280;DHT22;5696;50.928;6.960;2022-08-01T15:33:42;30.60;71.50
11280;DHT22;5696;50.928;6.960;2022-08-01T15:36:13;30.50;71.80
11280;DHT22;5696;50.928;6.960;2022-08-01T15:38:38;30.50;71.60
11280;DHT22;5696;50.928;6.960;2022-08-01T15:41:04;30.50;72.50
11280;DHT22;5696;50.928;6.960;2022-08-01T15:43:30;30.50;72.20
11280;DHT22;5696;50.928;6.960;2022-08-01T15:45:57;30.60;72.20
11280;DHT22;5696;50.928;6.960;2022-08-01T15:48:23;30.70;72.50
11280;DHT22;5696;50.928;6.960;2022-08-01T15:50:49;30.80;71.70
11280;DHT22;5696;50.928;6.960;2022-08-01T15:53:14;30.40;71.80
11280;DHT22;5696;50.928;6.960;2022-08-01T15:55:40;30.10;73.60
11280;DHT22;5696;50.928;6.960;2022-08-01T15:58:06;29.90;74.20
11280;DHT22;5696;50.928;6.960;2022-08-01T16:00:32;29.80;74.90
11280;DHT22;5696;50.928;6.960;2022-08-01T16:02:58;29.90;75.50
11280;DHT22;5696;50.928;6.960;2022-08-01T16:05:24;29.90;76.60
11280;DHT22;5696;50.928;6.960;2022-08-01T16:07:49;30.00;76.30
11280;DHT22;5696;50.928;6.960;2022-08-01T16:10:15;30.00;77.00
11280;DHT22;5696;50.928;6.960;2022-08-01T16:12:41;29.90;77.10
11280;DHT22;5696;50.928;6.960;2022-08-01T16:15:07;29.70;78.50
11280;DHT22;5696;50.928;6.960;2022-08-01T16:17:34;29.50;79.00
11280;DHT22;5696;50.928;6.960;2022-08-01T16:20:00;29.30;80.20
11280;DHT22;5696;50.928;6.960;2022-08-01T16:22:26;29.10;81.20
11280;DHT22;5696;50.928;6.960;2022-08-01T16:24:52;28.90;82.50
11280;DHT22;5696;50.928;6.960;2022-08-01T16:27:17;29.20;82.10
11280;DHT22;5696;50.928;6.960;2022-08-01T16:29:43;29.30;81.70
11280;DHT22;5696;50.928;6.960;2022-08-01T16:32:09;29.60;81.60
11280;DHT22;5696;50.928;6.960;2022-08-01T16:34:35;29.40;82.20
11280;DHT22;5696;50.928;6.960;2022-08-01T16:37:00;29.40;82.10
11280;DHT22;5696;50.928;6.960;2022-08-01T16:39:26;29.20;82.80
11280;DHT22;5696;50.928;6.960;2022-08-01T16:41:52;28.90;83.20
11280;DHT22;5696;50.928;6.960;2022-08-01T16:44:17;28.80;84.40
11280;DHT22;5696;50.928;6.960;2022-08-01T16:46:43;28.80;85.20
11280;DHT22;5696;50.928;6.960;2022-08-01T16:49:09;28.50;84.90
11280;DHT22;5696;50.928;6.960;2022-08-01T16:51:35;28.40;85.80
11280;DHT22;5696;50.928;6.960;2022-08-01T16:54:01;28.10;87.20
11280;DHT22;5696;50.928;6.960;2022-08-01T16:56:28;28.00;88.30
11280;DHT22;5696;50.928;6.960;2022-08-01T16:58:53;27.90;88.50
11280;DHT22;5696;50.928;6.960;2022-08-01T17:01:19;27.80;89.70
11280;DHT22;5696;50.928;6.960;2022-08-01T17:03:45;27.50;90.00
11280;DHT22;5696;50.928;6.960;2022-08-01T17:06:11;27.40;90.50
11280;DHT22;5696;50.928;6.960;2022-08-01T17:08:37;27.30;90.90
11280;DHT22;5696;50.928;6.960;2022-08-01T17:11:03;27.20;91.30
11280;DHT22;5696;50.928;6.960;2022-08-01T17:13:29;27.20;91.30
11280;DHT22;5696;50.928;6.960;2022-08-01T17:15:55;27.10;91.40
11280;DHT22;5696;50.928;6.960;2022-08-01T17:18:20;27.10;92.20
11280;DHT22;5696;50.928;6.960;2022-08-01T17:20:46;27.30;91.70
11280;DHT22;5696;50.928;6.960;2022-08-01T17:23:14;27.50;91.70
11280;DHT22;5696;50.928;6.960;2022-08-01T17:25:40;27.80;91.50
11280;DHT22;5696;50.928;6.960;2022-08-01T17:28:06;27.80;91.60
11280;DHT22;5696;50.928;6.960;2022-08-01T17:30:32;27.80;91.50
11280;DHT22;5696;50.928;6.960;2022-08-01T17:32:58;27.60;91.50
11280;DHT22;5696;50.928;6.960;2022-08-01T17:35:23;27.40;92.00
11280;DHT22;5696;50.928;6.960;2022-08-01T17:37:49;27.30;92.20
11280;DHT22;5696;50.928;6.960;2022-08-01T17:40:15;27.00;92.50
11280;DHT22;5696;50.928;6.960;2022-08-01T17:42:41;26.60;92.90
11280;DHT22;5696;50.928;6.960;2022-08-01T17:45:17;26.50;93.70
11280;DHT22;5696;50.928;6.960;2022-08-01T17:47:43;26.40;93.90
11280;DHT22;5696;50.928;6.960;2022-08-01T17:50:10;26.20;94.50
11280;DHT22;5696;50.928;6.960;2022-08-01T17:52:36;26.10;95.00
11280;DHT22;5696;50.928;6.960;2022-08-01T17:55:03;25.90;95.40
11280;DHT22;5696;50.928;6.960;2022-08-01T17:57:39;25.90;95.70
11280;DHT22;5696;50.928;6.960;2022-08-01T18:00:06;26.00;95.80
11280;DHT22;5696;50.928;6.960;2022-08-01T18:02:32;25.90;95.90
11280;DHT22;5696;50.928;6.960;2022-08-01T18:04:58;25.70;96.50
11280;DHT22;5696;50.928;6.960;2022-08-01T18:07:24;25.70;96.80
11280;DHT22;5696;50.928;6.960;2022-08-01T18:09:49;25.70;97.00
11280;DHT22;5696;50.928;6.960;2022-08-01T18:12:16;25.60;97.20
11280;DHT22;5696;50.928;6.960;2022-08-01T18:14:42;25.50;98.10
11280;DHT22;5696;50.928;6.960;2022-08-01T18:17:09;25.50;97.90
11280;DHT22;5696;50.928;6.960;2022-08-01T18:19:35;25.40;97.60
11280;DHT22;5696;50.928;6.960;2022-08-01T18:22:01;25.30;97.60
11280;DHT22;5696;50.928;6.960;2022-08-01T18:24:26;25.30;97.30
11280;DHT22;5696;50.928;6.960;2022-08-01T18:26:52;25.10;97.00
11280;DHT22;5696;50.928;6.960;2022-08-01T18:29:19;25.00;97.40
11280;DHT22;5696;50.928;6.960;2022-08-01T18:31:45;24.90;97.50
11280;DHT22;5696;50.928;6.960;2022-08-01T18:34:11;24.70;98.00
11280;DHT22;5696;50.928;6.960;2022-08-01T18:36:37;24.70;98.40
11280;DHT22;5696;50.928;6.960;2022-08-01T18:39:05;24.60;97.90
11280;DHT22;5696;50.928;6.960;2022-08-01T18:41:35;24.60;98.40
11280;DHT22;5696;50.928;6.960;2022-08-01T18:44:02;24.40;98.20
11280;DHT22;5696;50.928;6.960;2022-08-01T18:46:28;24.30;98.60
11280;DHT22;5696;50.928;6.960;2022-08-01T18:48:54;24.20;98.60
11280;DHT22;5696;50.928;6.960;2022-08-01T18:51:20;24.20;98.10
11280;DHT22;5696;50.928;6.960;2022-08-01T18:53:46;24.10;98.30
11280;DHT22;5696;50.928;6.960;2022-08-01T18:56:15;24.00;98.90
11280;DHT22;5696;50.928;6.960;2022-08-01T18:58:40;24.00;98.70
11280;DHT22;5696;50.928;6.960;2022-08-01T19:01:09;24.00;99.40
11280;DHT22;5696;50.928;6.960;2022-08-01T19:03:35;24.00;99.00
11280;DHT22;5696;50.928;6.960;2022-08-01T19:06:02;24.00;99.00
11280;DHT22;5696;50.928;6.960;2022-08-01T19:08:28;23.90;99.20
11280;DHT22;5696;50.928;6.960;2022-08-01T19:10:54;23.90;99.20
11280;DHT22;5696;50.928;6.960;2022-08-01T19:13:19;23.70;99.30
11280;DHT22;5696;50.928;6.960;2022-08-01T19:15:45;23.60;99.90
11280;DHT22;5696;50.928;6.960;2022-08-01T19:18:11;23.50;99.90
11280;DHT22;5696;50.928;6.960;2022-08-01T19:20:36;23.40;99.90
11280;DHT22;5696;50.928;6.960;2022-08-01T19:23:04;23.30;99.90
11280;DHT22;5696;50.928;6.960;2022-08-01T19:25:51;23.20;99.90
11280;DHT22;5696;50.928;6.960;2022-08-01T19:28:24;23.10;99.90
11280;DHT22;5696;50.928;6.960;2022-08-01T19:30:52;23.20;99.90
11280;DHT22;5696;50.928;6.960;2022-08-01T19:33:19;23.10;99.90
11280;DHT22;5696;50.928;6.960;2022-08-01T19:35:46;23.00;99.90
11280;DHT22;5696;50.928;6.960;2022-08-01T19:38:17;22.90;99.90
11280;DHT22;5696;50.928;6.960;2022-08-01T19:40:43;22.80;99.90
11280;DHT22;5696;50.928;6.960;2022-08-01T19:43:09;22.70;99.90
11280;DHT22;5696;50.928;6.960;2022-08-01T19:45:39;22.50;99.90
11280;DHT22;5696;50.928;6.960;2022-08-01T19:48:05;22.50;99.90
11280;DHT22;5696;50.928;6.960;2022-08-01T19:50:32;22.40;99.90
11280;DHT22;5696;50.928;6.960;2022-08-01T19:53:01;22.40;99.90
11280;DHT22;5696;50.928;6.960;2022-08-01T19:55:34;22.40;99.90
11280;DHT22;5696;50.928;6.960;2022-08-01T19:58:02;22.30;99.90
11280;DHT22;5696;50.928;6.960;2022-08-01T20:00:28;22.30;99.90
11280;DHT22;5696;50.928;6.960;2022-08-01T20:02:55;22.40;99.90
11280;DHT22;5696;50.928;6.960;2022-08-01T20:05:24;22.30;99.90
11280;DHT22;5696;50.928;6.960;2022-08-01T20:07:50;22.30;99.90
11280;DHT22;5696;50.928;6.960;2022-08-01T20:10:19;22.20;99.90
11280;DHT22;5696;50.928;6.960;2022-08-01T20:12:45;22.10;99.90
11280;DHT22;5696;50.928;6.960;2022-08-01T20:15:11;22.10;99.90
11280;DHT22;5696;50.928;6.960;2022-08-01T20:17:37;22.10;99.90
11280;DHT22;5696;50.928;6.960;2022-08-01T20:20:03;22.00;99.90
11280;DHT22;5696;50.928;6.960;2022-08-01T20:22:32;21.90;99.90
11280;DHT22;5696;50.928;6.960;2022-08-01T20:24:59;21.80;99.90
11280;DHT22;5696;50.928;6.960;2022-08-01T20:27:27;21.90;99.90
11280;DHT22;5696;50.928;6.960;2022-08-01T20:29:56;21.80;99.90
11280;DHT22;5696;50.928;6.960;2022-08-01T20:32:24;21.70;99.90
11280;DHT22;5696;50.928;6.960;2022-08-01T20:34:53;21.60;99.90
11280;DHT22;5696;50.928;6.960;2022-08-01T20:37:20;21.70;99.90
11280;DHT22;5696;50.928;6.960;2022-08-01T20:39:46;21.70;99.90
11280;DHT22;5696;50.928;6.960;2022-08-01T20:42:14;21.70;99.90
11280;DHT22;5696;50.928;6.960;2022-08-01T20:44:40;21.60;99.90
11280;DHT22;5696;50.928;6.960;2022-08-01T20:47:06;21.50;99.90
11280;DHT22;5696;50.928;6.960;2022-08-01T20:49:33;21.50;99.90
11280;DHT22;5696;50.928;6.960;2022-08-01T20:52:00;21.50;99.90
11280;DHT22;5696;50.928;6.960;2022-08-01T20:54:25;21.50;99.90
11280;DHT22;5696;50.928;6.960;2022-08-01T20:56:56;21.50;99.90
11280;DHT22;5696;50.928;6.960;2022-08-01T20:59:32;21.40;99.90
11280;DHT22;5696;50.928;6.960;2022-08-01T21:02:05;21.30;99.90
11280;DHT22;5696;50.928;6.960;2022-08-01T21:04:38;21.20;99.90
11280;DHT22;5696;50.928;6.960;2022-08-01T21:07:26;21.20;99.90
11280;DHT22;5696;50.928;6.960;2022-08-01T21:10:14;21.10;99.90
11280;DHT22;5696;50.928;6.960;2022-08-01T21:13:01;21.10;99.90
11280;DHT22;5696;50.928;6.960;2022-08-01T21:15:46;21.10;99.90